Time;durP1;ratioP1;P1;durP2;ratioP2;P2;SDS_P1;SDS_P2;PMS_P1;PMS_P2;Temp;Humidity;BMP_temperature;BMP_pressure;BME280_temperature;BME280_humidity;BME280_pressure;Samples;Min_cycle;Max_cycle;Signal;HPM_P1;HPM_P2
2024/02/23 00:00:37;;;;;;;0.45;0.20;;;7.30;99.90;;;;;;4149201;28;20137;-58
2024/02/23 00:02:40;;;;;;;0.60;0.55;;;7.20;99.90;;;;;;4131697;28;20070;-59
2024/02/23 00:04:43;;;;;;;0.68;0.20;;;7.20;99.90;;;;;;4151098;28;20042;-59
2024/02/23 00:06:45;;;;;;;0.63;0.20;;;7.20;99.90;;;;;;4133565;28;20100;-65
2024/02/23 00:08:47;;;;;;;1.15;0.63;;;7.20;99.90;;;;;;4150024;28;20357;-59
2024/02/23 00:10:50;;;;;;;0.28;0.10;;;7.20;99.90;;;;;;4148370;28;20046;-58
2024/02/23 00:12:52;;;;;;;5.22;1.60;;;7.10;99.90;;;;;;4148790;28;20482;-58
2024/02/23 00:14:54;;;;;;;1.65;0.45;;;7.10;99.90;;;;;;4148419;28;20116;-58
2024/02/23 00:16:57;;;;;;;1.02;0.30;;;7.10;99.90;;;;;;4148232;28;20050;-58
2024/02/23 00:19:00;;;;;;;0.63;0.45;;;7.10;99.90;;;;;;4148220;28;20045;-58
2024/02/23 00:21:03;;;;;;;0.40;0.40;;;7.10;99.90;;;;;;4148390;28;20509;-59
2024/02/23 00:23:05;;;;;;;0.43;0.25;;;7.10;99.90;;;;;;4148615;28;20046;-58
2024/02/23 00:25:08;;;;;;;0.25;0.22;;;7.00;99.90;;;;;;4148129;28;20049;-58
2024/02/23 00:27:10;;;;;;;2.83;1.45;;;7.00;99.90;;;;;;4148165;28;20402;-58
2024/02/23 00:29:12;;;;;;;2.72;0.40;;;7.00;99.90;;;;;;4148411;28;20050;-58
2024/02/23 00:31:14;;;;;;;2.20;0.25;;;7.00;99.90;;;;;;4148156;28;20054;-58
2024/02/23 00:33:16;;;;;;;0.50;0.20;;;7.00;99.90;;;;;;4148263;28;20053;-58
2024/02/23 00:35:20;;;;;;;1.42;0.50;;;6.90;99.90;;;;;;4147947;28;20409;-58
2024/02/23 00:37:22;;;;;;;5.65;1.75;;;6.90;99.90;;;;;;4148033;28;20096;-58
2024/02/23 00:39:24;;;;;;;0.20;0.20;;;6.90;99.90;;;;;;4147860;28;20057;-59
2024/02/23 00:41:26;;;;;;;0.70;0.32;;;6.90;99.90;;;;;;4148272;28;20049;-58
2024/02/23 00:43:31;;;;;;;1.77;0.38;;;7.00;99.90;;;;;;4149096;28;20046;-59
2024/02/23 00:45:32;;;;;;;;;;;7.00;99.90;;;;;;4148542;28;20057;-58
2024/02/23 00:47:35;;;;;;;1.33;0.63;;;6.90;99.90;;;;;;4147729;28;19921;-58
2024/02/23 00:49:37;;;;;;;1.15;0.40;;;6.90;99.90;;;;;;4148081;28;20589;-58
2024/02/23 00:51:41;;;;;;;2.22;1.35;;;6.90;99.90;;;;;;4147795;28;20060;-58
2024/02/23 00:53:43;;;;;;;0.40;0.22;;;6.90;99.90;;;;;;4147879;28;20050;-58
2024/02/23 00:55:45;;;;;;;0.82;0.30;;;6.80;99.90;;;;;;4147796;28;20050;-58
2024/02/23 00:57:47;;;;;;;1.02;0.70;;;6.80;99.90;;;;;;4147760;28;20055;-57
2024/02/23 00:59:49;;;;;;;0.73;0.20;;;6.90;99.90;;;;;;4147919;28;20436;-59
2024/02/23 01:01:52;;;;;;;0.70;0.35;;;6.80;99.90;;;;;;4147625;28;20064;-58
2024/02/23 01:03:54;;;;;;;0.65;0.20;;;6.90;99.90;;;;;;4147846;28;20081;-58
2024/02/23 01:05:56;;;;;;;1.55;0.40;;;6.90;99.90;;;;;;4147470;28;20046;-58
2024/02/23 01:07:59;;;;;;;1.55;0.65;;;7.00;99.90;;;;;;4147170;28;20050;-58
2024/02/23 01:10:03;;;;;;;2.20;0.95;;;7.00;99.90;;;;;;4147825;28;20049;-58
2024/02/23 01:12:06;;;;;;;3.40;0.43;;;7.10;99.90;;;;;;4147576;28;20509;-58
2024/02/23 01:14:08;;;;;;;0.85;0.40;;;7.00;99.90;;;;;;4130262;28;20046;-58
2024/02/23 01:16:10;;;;;;;1.23;0.30;;;6.90;99.90;;;;;;4147823;28;20125;-58
2024/02/23 01:18:12;;;;;;;2.80;0.35;;;7.00;99.90;;;;;;4147617;28;20132;-58
2024/02/23 01:20:14;;;;;;;0.90;0.40;;;7.00;99.90;;;;;;4147746;28;20344;-59
2024/02/23 01:22:16;;;;;;;2.28;1.25;;;6.90;99.90;;;;;;4147711;28;20045;-59
2024/02/23 01:24:20;;;;;;;0.50;0.40;;;7.00;99.90;;;;;;4148509;28;20100;-58
2024/02/23 01:26:22;;;;;;;1.52;0.60;;;6.90;99.90;;;;;;4147935;28;20052;-59
2024/02/23 01:28:24;;;;;;;1.33;0.28;;;6.90;99.90;;;;;;4147754;28;20045;-59
2024/02/23 01:30:26;;;;;;;1.13;0.50;;;6.90;99.90;;;;;;4129844;28;20057;-59
2024/02/23 01:32:28;;;;;;;1.23;0.20;;;6.90;99.90;;;;;;4147494;28;20060;-59
2024/02/23 01:34:31;;;;;;;0.45;0.45;;;6.80;99.90;;;;;;4147637;28;20708;-59
2024/02/23 01:36:33;;;;;;;1.00;0.60;;;6.80;99.90;;;;;;4147571;28;20113;-59
2024/02/23 01:38:35;;;;;;;1.10;0.45;;;6.70;99.90;;;;;;4148017;28;20045;-59
2024/02/23 01:40:38;;;;;;;1.02;0.85;;;6.80;99.90;;;;;;4131657;28;20047;-65
2024/02/23 01:42:40;;;;;;;1.77;0.77;;;6.90;99.90;;;;;;4148240;28;20046;-58
2024/02/23 01:44:42;;;;;;;0.82;0.38;;;6.80;99.90;;;;;;4150390;28;20058;-59
2024/02/23 01:46:45;;;;;;;0.77;0.60;;;6.80;99.90;;;;;;4150787;28;20077;-58
2024/02/23 01:48:47;;;;;;;1.67;0.60;;;6.80;99.90;;;;;;4150669;28;20053;-58
2024/02/23 01:50:50;;;;;;;1.33;0.40;;;6.90;99.90;;;;;;4151116;28;20132;-58
2024/02/23 01:52:54;;;;;;;2.13;0.57;;;6.90;99.90;;;;;;4150605;28;20550;-59
2024/02/23 01:54:56;;;;;;;2.80;1.05;;;6.90;99.90;;;;;;4150501;28;20493;-58
2024/02/23 01:57:01;;;;;;;1.25;0.85;;;6.90;99.90;;;;;;4150357;28;20074;-58
2024/02/23 01:59:23;;;;;;;3.13;1.15;;;6.90;99.90;;;;;;4150443;28;20046;-58
2024/02/23 02:01:26;;;;;;;0.63;0.40;;;6.90;99.90;;;;;;4132928;28;20061;-58
2024/02/23 02:03:28;;;;;;;4.60;1.85;;;6.90;99.90;;;;;;4150123;28;20129;-58
2024/02/23 02:05:30;;;;;;;2.45;1.10;;;6.90;99.90;;;;;;4149703;28;20578;-58
2024/02/23 02:07:32;;;;;;;3.42;0.82;;;6.90;99.90;;;;;;4150124;28;20121;-58
2024/02/23 02:09:35;;;;;;;1.92;1.15;;;6.80;99.90;;;;;;4150280;28;20536;-59
2024/02/23 02:11:48;;;;;;;2.38;1.48;;;6.80;99.90;;;;;;4132635;28;20137;-58
2024/02/23 02:13:52;;;;;;;1.58;0.80;;;6.90;99.90;;;;;;4148953;28;20050;-59
2024/02/23 02:15:54;;;;;;;2.97;1.13;;;7.00;99.90;;;;;;4150303;28;20464;-59
2024/02/23 02:17:56;;;;;;;1.67;1.05;;;7.00;99.90;;;;;;4150429;28;20045;-59
2024/02/23 02:20:01;;;;;;;3.42;1.05;;;7.00;99.90;;;;;;4150188;28;20053;-59
2024/02/23 02:22:04;;;;;;;2.92;0.88;;;7.00;99.90;;;;;;4151530;28;20362;-60
2024/02/23 02:24:07;;;;;;;1.70;0.88;;;7.00;99.90;;;;;;4150935;28;20052;-58
2024/02/23 02:26:09;;;;;;;0.90;0.45;;;6.90;99.90;;;;;;4150777;28;20050;-59
2024/02/23 02:28:11;;;;;;;0.20;0.10;;;7.00;99.90;;;;;;4151548;28;20100;-59
2024/02/23 02:30:14;;;;;;;0.63;0.40;;;6.90;99.90;;;;;;4152553;28;20038;-58
2024/02/23 02:32:16;;;;;;;0.22;0.20;;;7.00;99.90;;;;;;4151989;28;20057;-59
2024/02/23 02:34:19;;;;;;;1.20;0.57;;;7.10;99.90;;;;;;4152283;28;20053;-60
2024/02/23 02:36:21;;;;;;;0.50;0.22;;;7.10;99.90;;;;;;4150789;28;20041;-63
2024/02/23 02:38:23;;;;;;;1.13;0.55;;;7.10;99.90;;;;;;4151075;28;20050;-60
2024/02/23 02:40:25;;;;;;;0.30;0.30;;;7.10;99.90;;;;;;4152151;28;20054;-62
2024/02/23 02:42:28;;;;;;;0.77;0.30;;;7.10;99.90;;;;;;4151964;28;20066;-64
2024/02/23 02:44:30;;;;;;;0.30;0.28;;;7.10;99.90;;;;;;4150855;28;20105;-58
2024/02/23 02:46:34;;;;;;;0.65;0.30;;;7.10;99.90;;;;;;4150761;28;20046;-60
2024/02/23 02:48:36;;;;;;;0.35;0.20;;;7.20;99.90;;;;;;4150121;28;20049;-59
2024/02/23 02:50:39;;;;;;;3.13;1.05;;;7.30;99.90;;;;;;4149576;28;20072;-58
2024/02/23 02:52:41;;;;;;;1.00;0.57;;;7.30;99.90;;;;;;4149848;28;20049;-58
2024/02/23 02:54:43;;;;;;;0.90;0.40;;;7.20;99.90;;;;;;4148302;28;20045;-58
2024/02/23 02:56:47;;;;;;;1.70;0.40;;;7.30;99.90;;;;;;4149365;28;20046;-58
2024/02/23 02:58:49;;;;;;;4.13;0.47;;;7.20;99.90;;;;;;4149288;28;20050;-59
2024/02/23 03:00:51;;;;;;;1.00;0.40;;;7.30;99.90;;;;;;4149588;28;20049;-58
2024/02/23 03:02:54;;;;;;;7.72;1.10;;;7.20;99.90;;;;;;4149535;28;20045;-59
2024/02/23 03:04:56;;;;;;;0.70;0.22;;;7.20;99.90;;;;;;4149081;28;20123;-58
2024/02/23 03:06:59;;;;;;;4.03;1.05;;;7.10;99.90;;;;;;4149389;28;20049;-59
2024/02/23 03:09:01;;;;;;;0.40;0.10;;;7.10;99.90;;;;;;4149042;28;20468;-58
2024/02/23 03:11:03;;;;;;;1.73;0.25;;;7.10;99.90;;;;;;4149334;28;20100;-58
2024/02/23 03:13:05;;;;;;;6.22;1.40;;;7.10;99.90;;;;;;4149069;28;20085;-59
2024/02/23 03:15:09;;;;;;;2.95;1.55;;;7.00;99.90;;;;;;4149295;28;20045;-58
2024/02/23 03:17:12;;;;;;;0.88;0.65;;;6.90;99.90;;;;;;4150013;28;20054;-61
2024/02/23 03:19:15;;;;;;;0.43;0.20;;;7.00;99.90;;;;;;4150220;28;20045;-59
2024/02/23 03:21:17;;;;;;;0.43;0.22;;;7.00;99.90;;;;;;4149974;28;20504;-58
2024/02/23 03:23:20;;;;;;;0.63;0.63;;;7.00;99.90;;;;;;4149369;28;20050;-57
2024/02/23 03:25:22;;;;;;;1.38;1.27;;;7.00;99.90;;;;;;4149141;28;20050;-58
2024/02/23 03:27:28;;;;;;;0.90;0.50;;;6.90;99.90;;;;;;4148813;28;20042;-57
2024/02/23 03:29:31;;;;;;;1.20;0.43;;;6.90;99.90;;;;;;4148695;28;20056;-58
2024/02/23 03:31:34;;;;;;;0.40;0.20;;;6.90;99.90;;;;;;4131372;28;20046;-57
2024/02/23 03:33:36;;;;;;;0.52;0.20;;;6.80;99.90;;;;;;4148115;28;20054;-57
2024/02/23 03:35:40;;;;;;;0.55;0.35;;;6.80;99.90;;;;;;4149102;28;20496;-58
2024/02/23 03:37:42;;;;;;;0.63;0.50;;;6.90;99.90;;;;;;4149469;28;20042;-60
2024/02/23 03:39:44;;;;;;;1.17;0.30;;;6.80;99.90;;;;;;4148856;28;20042;-57
2024/02/23 03:41:46;;;;;;;1.42;1.13;;;6.80;99.90;;;;;;4148647;28;20054;-57
2024/02/23 03:43:48;;;;;;;1.65;0.20;;;6.70;99.90;;;;;;4148661;28;20482;-57
2024/02/23 03:45:50;;;;;;;0.50;0.30;;;6.70;99.90;;;;;;4148725;28;20057;-57
2024/02/23 03:47:52;;;;;;;0.95;0.88;;;6.80;99.90;;;;;;4148164;28;20049;-58
2024/02/23 03:49:55;;;;;;;0.40;0.40;;;6.80;99.90;;;;;;4131312;28;20538;-57
2024/02/23 03:51:58;;;;;;;4.28;0.98;;;6.80;99.90;;;;;;4148930;28;20103;-59
2024/02/23 03:54:00;;;;;;;0.35;0.15;;;6.70;99.90;;;;;;4148429;28;20417;-58
2024/02/23 03:56:03;;;;;;;1.83;1.15;;;6.70;99.90;;;;;;4148769;28;20049;-58
2024/02/23 03:58:06;;;;;;;0.40;0.22;;;6.60;99.90;;;;;;4148441;28;20100;-58
2024/02/23 04:00:09;;;;;;;0.17;0.13;;;6.70;99.90;;;;;;4148437;28;20124;-58
2024/02/23 04:02:11;;;;;;;0.57;0.10;;;6.70;99.90;;;;;;4148336;28;20085;-58
2024/02/23 04:04:13;;;;;;;1.25;0.40;;;6.70;99.90;;;;;;4148497;28;20068;-57
2024/02/23 04:06:15;;;;;;;2.63;0.40;;;6.80;99.90;;;;;;4147684;28;20133;-58
2024/02/23 04:08:19;;;;;;;0.22;0.22;;;6.70;99.90;;;;;;4148332;28;20050;-57
2024/02/23 04:10:21;;;;;;;0.20;0.20;;;6.70;99.90;;;;;;4130880;28;20046;-58
2024/02/23 04:12:23;;;;;;;0.57;0.17;;;6.70;99.90;;;;;;4148230;28;20100;-58
2024/02/23 04:14:25;;;;;;;0.25;0.10;;;6.60;99.90;;;;;;4148100;28;20124;-58
2024/02/23 04:16:28;;;;;;;1.08;0.52;;;6.60;99.90;;;;;;4148152;28;20049;-58
2024/02/23 04:18:31;;;;;;;0.43;0.22;;;6.70;99.90;;;;;;4148536;28;20556;-58
2024/02/23 04:20:33;;;;;;;0.40;0.20;;;6.70;99.90;;;;;;4148471;28;20042;-58
2024/02/23 04:22:36;;;;;;;0.40;0.30;;;6.70;99.90;;;;;;4149406;28;20140;-58
2024/02/23 04:24:40;;;;;;;0.93;0.40;;;6.70;99.90;;;;;;4130757;28;20616;-58
2024/02/23 04:26:42;;;;;;;0.35;0.20;;;6.70;99.90;;;;;;4148175;28;20096;-56
2024/02/23 04:28:45;;;;;;;6.25;0.55;;;6.80;99.90;;;;;;4148304;28;20057;-57
2024/02/23 04:30:47;;;;;;;1.08;0.73;;;6.80;99.90;;;;;;4147617;28;20129;-62
2024/02/23 04:32:49;;;;;;;2.08;1.23;;;6.80;99.90;;;;;;4147929;28;20065;-58
2024/02/23 04:34:51;;;;;;;1.75;0.73;;;6.70;99.90;;;;;;4149847;28;20459;-57
2024/02/23 04:36:53;;;;;;;1.95;0.32;;;6.70;99.90;;;;;;4131760;28;20060;-57
2024/02/23 04:38:55;;;;;;;8.15;1.58;;;6.70;99.90;;;;;;4132011;28;20046;-58
2024/02/23 04:41:02;;;;;;;0.57;0.20;;;6.70;99.90;;;;;;4148772;28;20501;-57
2024/02/23 04:43:04;;;;;;;0.75;0.30;;;6.70;99.90;;;;;;4148458;28;20042;-58
2024/02/23 04:45:07;;;;;;;1.67;0.93;;;6.60;99.90;;;;;;4147498;28;20050;-58
2024/02/23 04:47:09;;;;;;;0.75;0.65;;;6.70;99.90;;;;;;4148221;28;20422;-58
2024/02/23 04:49:11;;;;;;;1.95;1.52;;;6.70;99.90;;;;;;4147736;28;20049;-59
2024/02/23 04:51:14;;;;;;;0.75;0.22;;;6.70;99.90;;;;;;4147991;28;20052;-65
2024/02/23 04:53:16;;;;;;;0.40;0.40;;;6.70;99.90;;;;;;4147762;28;20544;-58
2024/02/23 04:55:18;;;;;;;0.10;0.10;;;6.60;99.90;;;;;;4147592;28;20069;-57
2024/02/23 04:57:22;;;;;;;4.55;0.80;;;6.60;99.90;;;;;;4147860;28;20046;-58
2024/02/23 04:59:24;;;;;;;1.08;0.55;;;6.70;99.90;;;;;;4147688;28;20046;-57
2024/02/23 05:01:28;;;;;;;2.53;0.40;;;6.60;99.90;;;;;;4147879;28;20136;-59
2024/02/23 05:03:30;;;;;;;3.17;0.90;;;6.70;99.90;;;;;;4147597;28;20457;-58
2024/02/23 05:05:33;;;;;;;0.77;0.38;;;6.60;99.90;;;;;;4147729;28;20056;-57
2024/02/23 05:07:35;;;;;;;2.70;1.08;;;6.60;99.90;;;;;;4147596;28;20050;-58
2024/02/23 05:09:37;;;;;;;0.47;0.30;;;6.70;99.90;;;;;;4147572;28;20046;-59
2024/02/23 05:11:39;;;;;;;0.50;0.50;;;6.70;99.90;;;;;;4147674;28;20045;-58
2024/02/23 05:13:43;;;;;;;1.10;0.90;;;6.70;99.90;;;;;;4147443;28;20122;-60
2024/02/23 05:15:45;;;;;;;0.20;0.20;;;6.70;99.90;;;;;;4149621;28;20057;-62
2024/02/23 05:17:47;;;;;;;1.00;0.20;;;6.70;99.90;;;;;;4149483;28;20049;-65
2024/02/23 05:19:49;;;;;;;0.88;0.40;;;6.70;99.90;;;;;;4151334;28;20555;-60
2024/02/23 05:21:51;;;;;;;1.92;1.30;;;6.60;99.90;;;;;;4150963;28;20042;-58
2024/02/23 05:23:53;;;;;;;0.68;0.28;;;6.70;99.90;;;;;;4150705;28;20404;-58
2024/02/23 05:25:55;;;;;;;1.13;0.30;;;6.70;99.90;;;;;;4151040;28;20068;-58
2024/02/23 05:27:57;;;;;;;0.22;0.20;;;6.70;99.90;;;;;;4150775;28;20046;-58
2024/02/23 05:30:01;;;;;;;1.00;0.30;;;6.70;99.90;;;;;;4150385;28;20522;-59
2024/02/23 05:32:03;;;;;;;0.77;0.47;;;6.60;99.90;;;;;;4150897;28;20116;-59
2024/02/23 05:34:06;;;;;;;0.93;0.57;;;6.70;99.90;;;;;;4150556;28;20081;-59
2024/02/23 05:36:08;;;;;;;0.50;0.32;;;6.70;99.90;;;;;;4150545;28;20125;-58
2024/02/23 05:38:10;;;;;;;0.65;0.20;;;6.70;99.90;;;;;;4150620;28;20042;-59
2024/02/23 05:40:12;;;;;;;0.80;0.38;;;6.80;99.90;;;;;;4150439;28;20045;-59
2024/02/23 05:42:14;;;;;;;3.25;0.50;;;6.80;99.90;;;;;;4150687;28;20391;-59
2024/02/23 05:44:17;;;;;;;1.75;0.82;;;6.70;99.90;;;;;;4150175;28;20125;-59
2024/02/23 05:46:21;;;;;;;1.23;0.30;;;6.70;99.90;;;;;;4150426;28;20238;-58
2024/02/23 05:48:26;;;;;;;0.57;0.30;;;6.80;99.90;;;;;;4133367;28;20252;-58
2024/02/23 05:50:31;;;;;;;0.63;0.30;;;6.70;99.90;;;;;;4151069;28;20046;-58
2024/02/23 05:52:34;;;;;;;1.10;0.68;;;6.70;99.90;;;;;;4150752;28;20165;-59
2024/02/23 05:54:36;;;;;;;1.23;0.30;;;6.70;99.90;;;;;;4150660;28;20068;-59
2024/02/23 05:56:38;;;;;;;10.05;2.17;;;6.80;99.90;;;;;;4150240;28;20049;-59
2024/02/23 05:58:40;;;;;;;0.32;0.10;;;6.70;99.90;;;;;;4150044;28;20504;-58
2024/02/23 06:00:42;;;;;;;0.85;0.45;;;6.80;99.90;;;;;;4150268;28;20042;-58
2024/02/23 06:02:46;;;;;;;0.17;0.17;;;6.80;99.90;;;;;;4150484;28;20046;-59
2024/02/23 06:04:48;;;;;;;0.45;0.30;;;6.70;99.90;;;;;;4150058;28;20050;-58
2024/02/23 06:06:51;;;;;;;0.22;0.10;;;6.60;99.90;;;;;;4149894;28;20049;-58
2024/02/23 06:08:53;;;;;;;1.30;0.60;;;6.60;99.90;;;;;;4150311;28;20135;-58
2024/02/23 06:10:55;;;;;;;0.80;0.35;;;6.60;99.90;;;;;;4150071;28;20121;-59
2024/02/23 06:12:57;;;;;;;2.05;1.05;;;6.60;99.90;;;;;;4149682;28;20105;-58
2024/02/23 06:15:02;;;;;;;;;;;6.60;99.90;;;;;;4150561;28;20485;-58
2024/02/23 06:17:04;;;;;;;4.38;1.38;;;6.50;99.90;;;;;;4150194;28;19944;-58
2024/02/23 06:19:08;;;;;;;0.57;0.30;;;6.50;99.90;;;;;;4150279;28;20077;-59
2024/02/23 06:21:14;;;;;;;0.40;0.20;;;6.50;99.90;;;;;;4150655;28;20441;-58
2024/02/23 06:23:17;;;;;;;0.38;0.30;;;6.50;99.90;;;;;;4133491;28;20046;-62
2024/02/23 06:25:19;;;;;;;0.28;0.25;;;6.50;99.90;;;;;;4151447;28;20398;-58
2024/02/23 06:27:21;;;;;;;1.08;0.63;;;6.50;99.90;;;;;;4150265;28;20054;-59
2024/02/23 06:29:27;;;;;;;0.47;0.20;;;6.60;99.90;;;;;;4150842;28;20041;-59
2024/02/23 06:31:29;;;;;;;0.70;0.70;;;6.50;99.90;;;;;;4150423;28;20074;-58
2024/02/23 06:33:31;;;;;;;0.10;0.10;;;6.50;99.90;;;;;;4150333;28;20054;-59
2024/02/23 06:35:35;;;;;;;5.53;0.77;;;6.50;99.90;;;;;;4150000;28;20041;-58
2024/02/23 06:37:37;;;;;;;2.55;0.40;;;6.50;99.90;;;;;;4151348;28;20046;-63
2024/02/23 06:39:40;;;;;;;0.40;0.10;;;6.50;99.90;;;;;;4135469;28;20046;-60
2024/02/23 06:41:43;;;;;;;0.77;0.15;;;6.60;99.90;;;;;;4134670;28;20046;-69
2024/02/23 06:43:45;;;;;;;0.45;0.38;;;6.60;99.90;;;;;;4134110;28;20053;-59
2024/02/23 06:45:48;;;;;;;1.00;0.73;;;6.60;99.90;;;;;;4134088;28;20042;-59
2024/02/23 06:47:50;;;;;;;0.50;0.25;;;6.50;99.90;;;;;;4133494;28;20065;-58
2024/02/23 06:49:52;;;;;;;1.48;0.75;;;6.60;99.90;;;;;;4134164;28;20451;-58
2024/02/23 06:51:55;;;;;;;1.08;0.70;;;6.60;99.90;;;;;;4134029;28;20050;-59
2024/02/23 06:53:57;;;;;;;0.40;0.40;;;6.70;99.90;;;;;;4133737;28;20458;-60
2024/02/23 06:56:00;;;;;;;2.53;1.23;;;6.70;99.90;;;;;;4132890;28;20125;-58
2024/02/23 06:58:04;;;;;;;0.52;0.28;;;6.70;99.90;;;;;;4133251;28;20482;-58
2024/02/23 07:00:08;;;;;;;4.28;1.17;;;6.70;99.90;;;;;;4133241;28;20054;-59
2024/02/23 07:02:10;;;;;;;1.85;1.38;;;6.80;99.90;;;;;;4133438;28;20050;-58
2024/02/23 07:04:13;;;;;;;0.17;0.17;;;6.80;99.90;;;;;;4133487;28;20047;-58
2024/02/23 07:06:18;;;;;;;3.70;1.38;;;6.80;99.90;;;;;;4133664;28;20137;-60
2024/02/23 07:08:21;;;;;;;0.20;0.20;;;6.80;99.90;;;;;;4133156;28;20058;-63
2024/02/23 07:10:25;;;;;;;0.38;0.20;;;6.80;99.90;;;;;;4115535;28;20058;-59
2024/02/23 07:12:28;;;;;;;0.10;0.10;;;6.70;99.90;;;;;;4115845;28;20058;-59
2024/02/23 07:14:30;;;;;;;0.47;0.45;;;6.80;99.90;;;;;;4133055;28;20054;-59
2024/02/23 07:16:33;;;;;;;1.48;0.40;;;6.80;99.90;;;;;;4133025;28;20520;-59
2024/02/23 07:18:35;;;;;;;0.60;0.30;;;6.90;99.90;;;;;;4133246;28;20246;-58
2024/02/23 07:20:37;;;;;;;0.40;0.20;;;6.80;99.90;;;;;;4132970;28;20073;-58
2024/02/23 07:22:43;;;;;;;0.50;0.30;;;6.80;99.90;;;;;;4133033;28;20481;-63
2024/02/23 07:24:47;;;;;;;0.47;0.25;;;6.80;99.90;;;;;;4132414;28;20405;-58
2024/02/23 07:26:49;;;;;;;0.60;0.45;;;6.90;99.90;;;;;;4132706;28;20121;-58
2024/02/23 07:28:51;;;;;;;1.02;0.30;;;6.90;99.90;;;;;;4132952;28;20053;-57
2024/02/23 07:30:53;;;;;;;0.60;0.25;;;6.90;99.90;;;;;;4132703;28;20050;-58
2024/02/23 07:32:55;;;;;;;3.55;0.65;;;7.00;99.90;;;;;;4132521;28;20054;-58
2024/02/23 07:34:58;;;;;;;1.25;0.38;;;7.00;99.90;;;;;;4132844;28;20046;-57
2024/02/23 07:37:00;;;;;;;0.10;0.10;;;7.00;99.90;;;;;;4133121;28;20057;-58
2024/02/23 07:39:02;;;;;;;0.90;0.43;;;7.10;99.90;;;;;;4126177;28;20056;-58
2024/02/23 07:41:06;;;;;;;10.02;1.63;;;7.10;99.90;;;;;;4148753;28;20046;-58
2024/02/23 07:43:10;;;;;;;1.77;1.10;;;7.10;99.90;;;;;;4149704;28;20085;-59
2024/02/23 07:45:13;;;;;;;0.20;0.20;;;7.10;99.90;;;;;;4131577;28;20042;-58
2024/02/23 07:47:15;;;;;;;2.58;0.70;;;7.10;99.90;;;;;;4148833;28;20505;-58
2024/02/23 07:49:17;;;;;;;0.30;0.20;;;7.20;99.90;;;;;;4148826;28;20054;-67
2024/02/23 07:51:19;;;;;;;0.82;0.30;;;7.10;99.90;;;;;;4150236;28;20125;-57
2024/02/23 07:53:21;;;;;;;9.23;0.68;;;7.20;99.90;;;;;;4149857;28;20057;-57
2024/02/23 07:55:23;;;;;;;0.10;0.10;;;7.30;99.90;;;;;;4148695;28;20042;-68
2024/02/23 07:57:27;;;;;;;0.70;0.43;;;7.40;99.90;;;;;;4148760;28;20052;-58
2024/02/23 07:59:29;;;;;;;0.52;0.30;;;7.50;99.90;;;;;;4148785;28;20049;-57
2024/02/23 08:01:31;;;;;;;2.42;0.77;;;7.40;99.90;;;;;;4148515;28;20050;-58
2024/02/23 08:03:33;;;;;;;0.75;0.32;;;7.50;99.90;;;;;;4149258;28;20065;-64
2024/02/23 08:05:35;;;;;;;8.30;1.48;;;7.50;99.90;;;;;;4149279;28;20104;-57
2024/02/23 08:07:37;;;;;;;2.20;0.40;;;7.60;99.90;;;;;;4148843;28;20049;-59
2024/02/23 08:09:40;;;;;;;0.90;0.17;;;7.50;99.90;;;;;;4148533;28;20046;-58
2024/02/23 08:11:42;;;;;;;0.60;0.20;;;7.50;99.90;;;;;;4149564;28;20041;-59
2024/02/23 08:13:45;;;;;;;1.02;0.40;;;7.50;99.90;;;;;;4149462;28;20080;-63
2024/02/23 08:15:47;;;;;;;0.88;0.55;;;7.40;99.90;;;;;;4151093;28;20046;-60
2024/02/23 08:17:49;;;;;;;1.58;0.73;;;7.50;99.90;;;;;;4151007;28;20054;-59
2024/02/23 08:19:52;;;;;;;0.40;0.30;;;7.60;99.90;;;;;;4150186;28;20107;-61
2024/02/23 08:21:54;;;;;;;0.60;0.22;;;7.50;99.90;;;;;;4149836;28;20057;-60
2024/02/23 08:23:56;;;;;;;1.05;0.25;;;7.60;99.90;;;;;;4131627;28;20066;-60
2024/02/23 08:26:00;;;;;;;0.80;0.55;;;7.60;99.90;;;;;;4148784;28;20061;-58
2024/02/23 08:28:02;;;;;;;1.85;1.08;;;7.60;99.90;;;;;;4148428;28;20072;-59
2024/02/23 08:30:07;;;;;;;3.10;0.85;;;7.60;99.90;;;;;;4148360;28;20046;-58
2024/02/23 08:32:09;;;;;;;0.93;0.43;;;7.80;99.90;;;;;;4148421;28;20045;-57
2024/02/23 08:34:12;;;;;;;0.38;0.10;;;7.90;99.90;;;;;;4134914;28;20046;-59
2024/02/23 08:36:14;;;;;;;5.45;0.93;;;7.90;99.90;;;;;;4131440;28;20137;-58
2024/02/23 08:38:18;;;;;;;2.70;0.63;;;8.20;99.90;;;;;;4135969;28;20046;-58
2024/02/23 08:40:20;;;;;;;1.48;0.40;;;8.40;99.90;;;;;;4149312;28;20042;-58
2024/02/23 08:42:22;;;;;;;3.15;0.93;;;8.20;99.90;;;;;;4140390;28;20046;-58
2024/02/23 08:44:24;;;;;;;1.02;0.25;;;8.20;99.90;;;;;;4144714;28;20050;-57
2024/02/23 08:46:28;;;;;;;1.45;0.20;;;8.20;99.90;;;;;;4147908;28;20096;-60
2024/02/23 08:48:30;;;;;;;1.17;0.40;;;8.20;99.90;;;;;;4144871;28;20405;-58
2024/02/23 08:50:34;;;;;;;1.98;0.50;;;8.20;99.90;;;;;;4116825;28;20046;-59
2024/02/23 08:52:36;;;;;;;2.38;0.38;;;8.30;99.90;;;;;;4138792;28;20046;-59
2024/02/23 08:54:39;;;;;;;0.98;0.50;;;8.40;99.90;;;;;;4143806;28;20074;-58
2024/02/23 08:56:42;;;;;;;2.05;1.08;;;8.50;99.90;;;;;;4144502;28;20050;-58
2024/02/23 08:58:44;;;;;;;1.48;0.90;;;8.50;99.90;;;;;;4139037;28;20046;-58
2024/02/23 09:00:47;;;;;;;2.28;1.10;;;8.40;99.90;;;;;;4151088;28;20053;-58
2024/02/23 09:02:50;;;;;;;0.68;0.55;;;8.50;99.90;;;;;;4142597;28;20129;-59
2024/02/23 09:04:52;;;;;;;2.03;0.40;;;8.50;99.90;;;;;;4143992;28;20066;-58
2024/02/23 09:06:55;;;;;;;4.22;0.57;;;8.80;99.90;;;;;;4153299;28;20569;-58
2024/02/23 09:08:57;;;;;;;1.45;0.98;;;9.00;99.90;;;;;;4147723;28;20060;-58
2024/02/23 09:10:59;;;;;;;3.65;0.40;;;9.10;99.90;;;;;;4143174;28;20050;-58
2024/02/23 09:13:01;;;;;;;0.30;0.20;;;9.20;99.90;;;;;;4135539;28;20054;-59
2024/02/23 09:15:05;;;;;;;5.30;1.75;;;9.30;99.90;;;;;;4131677;28;20062;-58
2024/02/23 09:17:08;;;;;;;0.57;0.38;;;9.20;99.90;;;;;;4125367;28;20058;-59
2024/02/23 09:19:12;;;;;;;0.50;0.20;;;9.20;99.90;;;;;;4142003;28;20438;-59
2024/02/23 09:21:14;;;;;;;0.20;0.17;;;9.20;99.90;;;;;;4139603;28;20050;-58
2024/02/23 09:23:17;;;;;;;1.55;0.80;;;9.40;99.90;;;;;;4114970;28;20073;-61
2024/02/23 09:25:19;;;;;;;0.80;0.10;;;9.30;99.90;;;;;;4145059;28;20038;-59
2024/02/23 09:27:21;;;;;;;1.13;0.30;;;9.20;99.90;;;;;;4147688;28;20133;-65
2024/02/23 09:29:24;;;;;;;0.93;0.50;;;9.20;99.90;;;;;;4131956;28;20073;-57
2024/02/23 09:31:28;;;;;;;2.63;0.80;;;9.30;99.90;;;;;;4140958;28;20047;-57
2024/02/23 09:33:30;;;;;;;1.52;0.60;;;9.30;99.90;;;;;;4140297;28;20058;-58
2024/02/23 09:35:33;;;;;;;1.20;0.55;;;9.30;99.90;;;;;;4135027;28;20093;-58
2024/02/23 09:37:35;;;;;;;0.75;0.52;;;9.20;99.90;;;;;;4141670;28;20050;-58
2024/02/23 09:39:38;;;;;;;0.85;0.55;;;9.30;99.90;;;;;;4132327;28;20046;-58
2024/02/23 09:41:41;;;;;;;2.65;1.70;;;9.40;99.90;;;;;;4143448;28;20073;-59
2024/02/23 09:43:46;;;;;;;0.80;0.30;;;9.40;99.90;;;;;;4153884;28;20112;-57
2024/02/23 09:45:51;;;;;;;0.73;0.55;;;9.20;99.90;;;;;;4146858;28;20069;-58
2024/02/23 09:47:54;;;;;;;0.82;0.57;;;9.20;99.90;;;;;;4135466;28;20050;-58
2024/02/23 09:49:58;;;;;;;2.92;0.35;;;9.20;99.90;;;;;;4138807;28;20391;-58
2024/02/23 09:52:02;;;;;;;1.10;0.30;;;9.30;99.90;;;;;;4135157;28;20065;-59
2024/02/23 09:54:05;;;;;;;0.20;0.20;;;9.30;99.90;;;;;;4139923;28;20072;-66
2024/02/23 09:56:08;;;;;;;4.75;0.88;;;9.40;99.90;;;;;;4146032;28;20497;-58
2024/02/23 09:58:15;;;;;;;0.65;0.47;;;9.50;99.90;;;;;;4137844;28;20406;-62
2024/02/23 10:00:18;;;;;;;1.80;1.45;;;9.60;99.90;;;;;;4141611;28;20450;-61
2024/02/23 10:02:21;;;;;;;1.52;0.30;;;9.50;99.90;;;;;;4148521;28;20042;-59
2024/02/23 10:04:26;;;;;;;0.60;0.52;;;9.60;99.90;;;;;;4138221;28;20402;-59
2024/02/23 10:06:28;;;;;;;0.47;0.40;;;9.50;99.90;;;;;;4133925;28;20052;-62
2024/02/23 10:08:37;;;;;;;0.82;0.38;;;9.50;99.90;;;;;;4138170;28;20054;-59
2024/02/23 10:10:46;;;;;;;2.75;1.02;;;9.40;99.90;;;;;;4149803;28;20409;-59
2024/02/23 10:12:48;;;;;;;0.70;0.30;;;9.40;99.90;;;;;;4143834;28;20051;-59
2024/02/23 10:14:51;;;;;;;0.50;0.20;;;9.20;99.90;;;;;;4143186;28;20042;-60
2024/02/23 10:16:55;;;;;;;2.78;0.93;;;9.20;99.90;;;;;;4149585;28;20072;-59
2024/02/23 10:19:02;;;;;;;1.48;0.75;;;9.20;99.90;;;;;;4147188;28;20050;-59
2024/02/23 10:21:09;;;;;;;2.75;0.82;;;9.30;99.90;;;;;;4133314;28;20548;-59
2024/02/23 10:23:11;;;;;;;2.00;0.70;;;9.30;99.90;;;;;;4138195;28;20398;-64
2024/02/23 10:25:15;;;;;;;1.20;1.10;;;9.40;99.90;;;;;;4143097;28;20563;-58
2024/02/23 10:27:17;;;;;;;1.58;0.40;;;9.50;99.90;;;;;;4148868;28;20132;-58
2024/02/23 10:29:20;;;;;;;0.22;0.22;;;9.60;99.90;;;;;;4145405;28;20088;-60
2024/02/23 10:31:28;;;;;;;2.95;0.98;;;9.80;99.90;;;;;;4134195;28;20133;-58
2024/02/23 10:33:35;;;;;;;0.47;0.47;;;9.90;99.40;;;;;;4139044;28;20085;-60
2024/02/23 10:35:44;;;;;;;1.10;0.63;;;9.90;99.50;;;;;;4136063;28;20100;-59
2024/02/23 10:37:53;;;;;;;0.40;0.30;;;9.90;99.40;;;;;;4134361;28;20118;-60
2024/02/23 10:39:59;;;;;;;0.70;0.30;;;9.90;99.60;;;;;;4145252;28;20315;-59
2024/02/23 10:42:04;;;;;;;0.40;0.25;;;10.00;99.60;;;;;;4138504;28;20159;-58
2024/02/23 10:44:08;;;;;;;1.52;0.45;;;10.10;99.30;;;;;;4145142;28;20500;-59
2024/02/23 10:46:12;;;;;;;1.05;0.20;;;9.80;99.40;;;;;;4133214;28;20508;-57
2024/02/23 10:48:15;;;;;;;1.40;0.35;;;9.90;99.90;;;;;;4149455;28;20092;-58